sensor_id;sensor_type;location;lat;lon;timestamp;pressure;altitude;pressure_sealevel;temperature;humidity
9784;BME280;4931;44.874;-1.092;2023-04-10T00:00:06;101792.75;;;11.70;100.00
9784;BME280;4931;44.874;-1.092;2023-04-10T00:02:32;101784.50;;;11.70;100.00
9784;BME280;4931;44.874;-1.092;2023-04-10T00:04:58;101798.03;;;11.77;100.00
9784;BME280;4931;44.874;-1.092;2023-04-10T00:07:24;101793.28;;;11.72;100.00
9784;BME280;4931;44.874;-1.092;2023-04-10T00:09:51;101794.88;;;11.63;100.00
9784;BME280;4931;44.874;-1.092;2023-04-10T00:12:16;101786.72;;;11.73;100.00
9784;BME280;4931;44.874;-1.092;2023-04-10T00:14:42;101789.34;;;11.58;100.00
9784;BME280;4931;44.874;-1.092;2023-04-10T00:17:08;101785.75;;;11.57;100.00
9784;BME280;4931;44.874;-1.092;2023-04-10T00:19:33;101782.78;;;11.64;100.00
9784;BME280;4931;44.874;-1.092;2023-04-10T00:21:59;101775.31;;;11.59;100.00
9784;BME280;4931;44.874;-1.092;2023-04-10T00:24:24;101786.25;;;11.54;100.00
9784;BME280;4931;44.874;-1.092;2023-04-10T00:26:50;101786.06;;;11.61;100.00
9784;BME280;4931;44.874;-1.092;2023-04-10T00:29:15;101775.91;;;11.61;100.00
9784;BME280;4931;44.874;-1.092;2023-04-10T00:31:41;101769.63;;;11.66;100.00
9784;BME280;4931;44.874;-1.092;2023-04-10T00:34:06;101769.97;;;11.75;100.00
9784;BME280;4931;44.874;-1.092;2023-04-10T00:36:33;101778.50;;;11.78;100.00
9784;BME280;4931;44.874;-1.092;2023-04-10T00:38:59;101784.81;;;11.79;100.00
9784;BME280;4931;44.874;-1.092;2023-04-10T00:41:25;101785.69;;;11.79;100.00
9784;BME280;4931;44.874;-1.092;2023-04-10T00:43:54;101787.34;;;11.81;100.00
9784;BME280;4931;44.874;-1.092;2023-04-10T00:46:21;101790.63;;;11.83;100.00
9784;BME280;4931;44.874;-1.092;2023-04-10T00:48:47;101802.16;;;11.79;100.00
9784;BME280;4931;44.874;-1.092;2023-04-10T00:51:13;101808.72;;;11.73;100.00
9784;BME280;4931;44.874;-1.092;2023-04-10T00:53:38;101812.75;;;11.66;100.00
9784;BME280;4931;44.874;-1.092;2023-04-10T00:56:05;101808.06;;;11.61;100.00
9784;BME280;4931;44.874;-1.092;2023-04-10T00:58:31;101799.69;;;11.78;100.00
9784;BME280;4931;44.874;-1.092;2023-04-10T01:00:56;101803.84;;;11.86;100.00
9784;BME280;4931;44.874;-1.092;2023-04-10T01:03:22;101807.84;;;12.00;100.00
9784;BME280;4931;44.874;-1.092;2023-04-10T01:11:06;101799.69;;;12.16;100.00
9784;BME280;4931;44.874;-1.092;2023-04-10T01:13:40;101800.22;;;12.12;100.00
9784;BME280;4931;44.874;-1.092;2023-04-10T01:18:51;101785.66;;;12.17;100.00
9784;BME280;4931;44.874;-1.092;2023-04-10T01:21:19;101787.09;;;12.25;100.00
9784;BME280;4931;44.874;-1.092;2023-04-10T01:29:16;101776.72;;;12.37;100.00
9784;BME280;4931;44.874;-1.092;2023-04-10T01:31:49;101761.88;;;12.43;100.00
9784;BME280;4931;44.874;-1.092;2023-04-10T01:34:23;101758.94;;;12.66;100.00
9784;BME280;4931;44.874;-1.092;2023-04-10T01:37:01;101747.16;;;12.75;100.00
9784;BME280;4931;44.874;-1.092;2023-04-10T01:39:29;101759.25;;;12.69;100.00
9784;BME280;4931;44.874;-1.092;2023-04-10T01:41:56;101751.50;;;12.61;100.00
9784;BME280;4931;44.874;-1.092;2023-04-10T01:44:27;101756.41;;;12.54;100.00
9784;BME280;4931;44.874;-1.092;2023-04-10T01:46:54;101742.16;;;12.72;100.00
9784;BME280;4931;44.874;-1.092;2023-04-10T01:49:22;101747.19;;;12.86;100.00
9784;BME280;4931;44.874;-1.092;2023-04-10T01:51:50;101745.53;;;12.85;100.00
9784;BME280;4931;44.874;-1.092;2023-04-10T01:54:16;101737.81;;;12.76;100.00
9784;BME280;4931;44.874;-1.092;2023-04-10T01:56:42;101737.78;;;12.71;100.00
9784;BME280;4931;44.874;-1.092;2023-04-10T01:59:08;101748.22;;;12.69;100.00
9784;BME280;4931;44.874;-1.092;2023-04-10T02:01:33;101751.31;;;12.83;100.00
9784;BME280;4931;44.874;-1.092;2023-04-10T02:03:59;101752.94;;;12.79;100.00
9784;BME280;4931;44.874;-1.092;2023-04-10T02:06:39;101749.94;;;12.81;100.00
9784;BME280;4931;44.874;-1.092;2023-04-10T02:09:24;101756.56;;;12.95;100.00
9784;BME280;4931;44.874;-1.092;2023-04-10T02:12:09;101752.16;;;12.89;100.00
9784;BME280;4931;44.874;-1.092;2023-04-10T02:14:41;101758.75;;;12.93;100.00
9784;BME280;4931;44.874;-1.092;2023-04-10T02:17:08;101759.34;;;13.00;100.00
9784;BME280;4931;44.874;-1.092;2023-04-10T02:19:36;101765.38;;;12.97;100.00
9784;BME280;4931;44.874;-1.092;2023-04-10T02:22:04;101757.97;;;12.98;100.00
9784;BME280;4931;44.874;-1.092;2023-04-10T02:24:31;101759.88;;;12.97;100.00
9784;BME280;4931;44.874;-1.092;2023-04-10T02:26:57;101748.31;;;13.00;100.00
9784;BME280;4931;44.874;-1.092;2023-04-10T02:29:23;101757.69;;;13.04;100.00
9784;BME280;4931;44.874;-1.092;2023-04-10T02:31:49;101756.88;;;13.09;100.00
9784;BME280;4931;44.874;-1.092;2023-04-10T02:34:14;101754.41;;;13.18;100.00
9784;BME280;4931;44.874;-1.092;2023-04-10T02:36:40;101756.59;;;13.10;100.00
9784;BME280;4931;44.874;-1.092;2023-04-10T02:39:06;101758.81;;;13.14;100.00
9784;BME280;4931;44.874;-1.092;2023-04-10T02:41:32;101749.47;;;13.20;100.00
9784;BME280;4931;44.874;-1.092;2023-04-10T02:43:58;101744.50;;;13.22;100.00
9784;BME280;4931;44.874;-1.092;2023-04-10T02:46:23;101745.06;;;13.19;100.00
9784;BME280;4931;44.874;-1.092;2023-04-10T02:48:53;101739.53;;;13.19;100.00
9784;BME280;4931;44.874;-1.092;2023-04-10T02:51:18;101746.97;;;13.23;100.00
9784;BME280;4931;44.874;-1.092;2023-04-10T02:53:44;101743.94;;;13.25;100.00
9784;BME280;4931;44.874;-1.092;2023-04-10T02:56:09;101745.06;;;13.24;100.00
9784;BME280;4931;44.874;-1.092;2023-04-10T02:58:36;101733.47;;;13.32;100.00
9784;BME280;4931;44.874;-1.092;2023-04-10T03:01:04;101737.91;;;13.33;100.00
9784;BME280;4931;44.874;-1.092;2023-04-10T03:03:29;101732.91;;;13.35;100.00
9784;BME280;4931;44.874;-1.092;2023-04-10T03:05:55;101734.63;;;13.36;100.00
9784;BME280;4931;44.874;-1.092;2023-04-10T03:08:21;101734.63;;;13.36;100.00
9784;BME280;4931;44.874;-1.092;2023-04-10T03:10:47;101732.44;;;13.38;100.00
9784;BME280;4931;44.874;-1.092;2023-04-10T03:13:15;101741.50;;;13.54;100.00
9784;BME280;4931;44.874;-1.092;2023-04-10T03:15:41;101732.97;;;13.45;100.00
9784;BME280;4931;44.874;-1.092;2023-04-10T03:18:06;101734.63;;;13.36;100.00
9784;BME280;4931;44.874;-1.092;2023-04-10T03:20:34;101736.25;;;13.32;100.00
9784;BME280;4931;44.874;-1.092;2023-04-10T03:23:00;101743.69;;;13.32;100.00
9784;BME280;4931;44.874;-1.092;2023-04-10T03:25:26;101747.25;;;13.32;100.00
9784;BME280;4931;44.874;-1.092;2023-04-10T03:27:51;101743.69;;;13.32;100.00
9784;BME280;4931;44.874;-1.092;2023-04-10T03:30:17;101750.84;;;13.33;100.00
9784;BME280;4931;44.874;-1.092;2023-04-10T03:32:42;101750.56;;;13.29;100.00
9784;BME280;4931;44.874;-1.092;2023-04-10T03:35:09;101753.88;;;13.31;100.00
9784;BME280;4931;44.874;-1.092;2023-04-10T03:37:35;101743.13;;;13.29;100.00
9784;BME280;4931;44.874;-1.092;2023-04-10T03:40:04;101752.22;;;13.30;100.00
9784;BME280;4931;44.874;-1.092;2023-04-10T03:42:30;101740.66;;;13.28;100.00
9784;BME280;4931;44.874;-1.092;2023-04-10T03:44:55;101738.44;;;13.20;100.00
9784;BME280;4931;44.874;-1.092;2023-04-10T03:47:21;101735.13;;;13.23;100.00
9784;BME280;4931;44.874;-1.092;2023-04-10T03:49:46;101734.56;;;13.26;100.00
9784;BME280;4931;44.874;-1.092;2023-04-10T03:52:12;101728.53;;;13.29;100.00
9784;BME280;4931;44.874;-1.092;2023-04-10T03:54:37;101727.97;;;13.27;100.00
9784;BME280;4931;44.874;-1.092;2023-04-10T03:57:03;101728.53;;;13.24;100.00
9784;BME280;4931;44.874;-1.092;2023-04-10T03:59:29;101734.06;;;13.39;100.00
9784;BME280;4931;44.874;-1.092;2023-04-10T04:01:54;101727.41;;;13.25;100.00
9784;BME280;4931;44.874;-1.092;2023-04-10T04:04:20;101735.19;;;13.43;100.00
9784;BME280;4931;44.874;-1.092;2023-04-10T04:06:46;101745.03;;;13.34;100.00
9784;BME280;4931;44.874;-1.092;2023-04-10T04:09:12;101735.41;;;13.26;100.00
9784;BME280;4931;44.874;-1.092;2023-04-10T04:11:38;101741.47;;;13.23;100.00
9784;BME280;4931;44.874;-1.092;2023-04-10T04:14:03;101743.13;;;13.24;100.00
9784;BME280;4931;44.874;-1.092;2023-04-10T04:16:29;101738.16;;;13.21;100.00
9784;BME280;4931;44.874;-1.092;2023-04-10T04:18:54;101738.97;;;13.22;100.00
9784;BME280;4931;44.874;-1.092;2023-04-10T04:21:20;101737.31;;;13.21;100.00
9784;BME280;4931;44.874;-1.092;2023-04-10T04:23:45;101738.44;;;13.20;100.00
9784;BME280;4931;44.874;-1.092;2023-04-10T04:26:11;101744.47;;;13.17;100.00
9784;BME280;4931;44.874;-1.092;2023-04-10T04:28:37;101746.72;;;13.20;100.00
9784;BME280;4931;44.874;-1.092;2023-04-10T04:31:02;101752.47;;;13.23;100.00
9784;BME280;4931;44.874;-1.092;2023-04-10T04:33:27;101746.97;;;13.23;100.00
9784;BME280;4931;44.874;-1.092;2023-04-10T04:35:54;101744.50;;;13.27;100.00
9784;BME280;4931;44.874;-1.092;2023-04-10T04:38:20;101743.13;;;13.24;100.00
9784;BME280;4931;44.874;-1.092;2023-04-10T04:40:45;101744.50;;;13.22;100.00
9784;BME280;4931;44.874;-1.092;2023-04-10T04:43:11;101743.41;;;13.28;100.00
9784;BME280;4931;44.874;-1.092;2023-04-10T04:45:36;101748.97;;;13.38;100.00
9784;BME280;4931;44.874;-1.092;2023-04-10T04:48:02;101744.22;;;13.28;100.00
9784;BME280;4931;44.874;-1.092;2023-04-10T04:50:27;101736.22;;;13.27;100.00
9784;BME280;4931;44.874;-1.092;2023-04-10T04:52:53;101745.59;;;13.26;100.00
9784;BME280;4931;44.874;-1.092;2023-04-10T04:55:18;101750.00;;;13.27;100.00
9784;BME280;4931;44.874;-1.092;2023-04-10T04:57:44;101761.03;;;13.32;100.00
9784;BME280;4931;44.874;-1.092;2023-04-10T05:00:10;101754.94;;;13.25;100.00
9784;BME280;4931;44.874;-1.092;2023-04-10T05:02:35;101748.34;;;13.21;100.00
9784;BME280;4931;44.874;-1.092;2023-04-10T05:05:01;101751.66;;;13.23;100.00
9784;BME280;4931;44.874;-1.092;2023-04-10T05:07:26;101745.59;;;13.26;100.00
9784;BME280;4931;44.874;-1.092;2023-04-10T05:09:52;101746.44;;;13.26;100.00
9784;BME280;4931;44.874;-1.092;2023-04-10T05:12:17;101747.81;;;13.24;100.00
9784;BME280;4931;44.874;-1.092;2023-04-10T05:14:43;101767.09;;;13.24;100.00
9784;BME280;4931;44.874;-1.092;2023-04-10T05:17:09;101777.56;;;13.22;100.00
9784;BME280;4931;44.874;-1.092;2023-04-10T05:19:35;101796.53;;;13.13;100.00
9784;BME280;4931;44.874;-1.092;2023-04-10T05:22:00;101797.66;;;13.07;100.00
9784;BME280;4931;44.874;-1.092;2023-04-10T05:24:26;101792.94;;;13.07;100.00
9784;BME280;4931;44.874;-1.092;2023-04-10T05:26:51;101775.31;;;13.08;100.00
9784;BME280;4931;44.874;-1.092;2023-04-10T05:29:17;101778.09;;;13.08;100.00
9784;BME280;4931;44.874;-1.092;2023-04-10T05:31:42;101779.72;;;13.04;100.00
9784;BME280;4931;44.874;-1.092;2023-04-10T05:34:08;101777.50;;;13.06;100.00
9784;BME280;4931;44.874;-1.092;2023-04-10T05:36:34;101779.75;;;13.09;100.00
9784;BME280;4931;44.874;-1.092;2023-04-10T05:38:59;101774.25;;;13.09;100.00
9784;BME280;4931;44.874;-1.092;2023-04-10T05:41:28;101779.47;;;13.11;100.00
9784;BME280;4931;44.874;-1.092;2023-04-10T05:43:53;101785.50;;;13.13;100.00
9784;BME280;4931;44.874;-1.092;2023-04-10T05:46:19;101791.59;;;13.10;100.00
9784;BME280;4931;44.874;-1.092;2023-04-10T05:48:44;101794.63;;;13.08;100.00
9784;BME280;4931;44.874;-1.092;2023-04-10T05:51:10;101808.94;;;13.10;100.00
9784;BME280;4931;44.874;-1.092;2023-04-10T05:53:35;101805.63;;;13.03;100.00
9784;BME280;4931;44.874;-1.092;2023-04-10T05:56:00;101827.06;;;13.01;100.00
9784;BME280;4931;44.874;-1.092;2023-04-10T05:58:27;101834.22;;;12.97;100.00
9784;BME280;4931;44.874;-1.092;2023-04-10T06:00:53;101848.56;;;12.94;100.00
9784;BME280;4931;44.874;-1.092;2023-04-10T06:03:20;101858.97;;;12.87;100.00
9784;BME280;4931;44.874;-1.092;2023-04-10T06:05:46;101862.84;;;12.86;100.00
9784;BME280;4931;44.874;-1.092;2023-04-10T06:08:11;101868.88;;;12.83;100.00
9784;BME280;4931;44.874;-1.092;2023-04-10T06:10:37;101873.84;;;12.81;100.00
9784;BME280;4931;44.874;-1.092;2023-04-10T06:13:03;101870.53;;;12.84;100.00
9784;BME280;4931;44.874;-1.092;2023-04-10T06:15:28;101874.69;;;12.86;100.00
9784;BME280;4931;44.874;-1.092;2023-04-10T06:17:54;101864.47;;;12.87;100.00
9784;BME280;4931;44.874;-1.092;2023-04-10T06:20:20;101865.63;;;12.91;100.00
9784;BME280;4931;44.874;-1.092;2023-04-10T06:22:45;101866.72;;;12.95;100.00
9784;BME280;4931;44.874;-1.092;2023-04-10T06:25:11;101871.16;;;13.01;100.00
9784;BME280;4931;44.874;-1.092;2023-04-10T06:27:37;101862.34;;;12.99;100.00
9784;BME280;4931;44.874;-1.092;2023-04-10T06:30:03;101880.78;;;13.04;100.00
9784;BME280;4931;44.874;-1.092;2023-04-10T06:32:29;101876.13;;;13.04;100.00
9784;BME280;4931;44.874;-1.092;2023-04-10T06:34:56;101883.31;;;13.05;100.00
9784;BME280;4931;44.874;-1.092;2023-04-10T06:37:31;101882.78;;;13.14;100.00
9784;BME280;4931;44.874;-1.092;2023-04-10T06:40:08;101885.00;;;13.17;100.00
9784;BME280;4931;44.874;-1.092;2023-04-10T06:42:34;101886.94;;;13.21;100.00
9784;BME280;4931;44.874;-1.092;2023-04-10T06:45:00;101887.22;;;13.25;100.00
9784;BME280;4931;44.874;-1.092;2023-04-10T06:47:26;101889.44;;;13.28;100.00
9784;BME280;4931;44.874;-1.092;2023-04-10T06:49:52;101906.25;;;13.26;100.00
9784;BME280;4931;44.874;-1.092;2023-04-10T06:52:17;101904.03;;;13.28;100.00
9784;BME280;4931;44.874;-1.092;2023-04-10T06:54:43;101911.50;;;13.33;100.00
9784;BME280;4931;44.874;-1.092;2023-04-10T06:57:08;101917.28;;;13.32;100.00
9784;BME280;4931;44.874;-1.092;2023-04-10T06:59:34;101926.69;;;13.36;100.00
9784;BME280;4931;44.874;-1.092;2023-04-10T07:02:01;101925.81;;;13.35;100.00
9784;BME280;4931;44.874;-1.092;2023-04-10T07:04:27;101931.66;;;13.39;100.00
9784;BME280;4931;44.874;-1.092;2023-04-10T07:06:52;101944.66;;;13.43;100.00
9784;BME280;4931;44.874;-1.092;2023-04-10T07:09:17;101942.41;;;13.40;100.00
9784;BME280;4931;44.874;-1.092;2023-04-10T07:11:43;101951.53;;;13.41;100.00
9784;BME280;4931;44.874;-1.092;2023-04-10T07:14:08;101955.69;;;13.43;100.00
9784;BME280;4931;44.874;-1.092;2023-04-10T07:16:34;101946.56;;;13.48;100.00
9784;BME280;4931;44.874;-1.092;2023-04-10T07:18:59;101956.78;;;13.48;100.00
9784;BME280;4931;44.874;-1.092;2023-04-10T07:21:25;101955.41;;;13.45;100.00
9784;BME280;4931;44.874;-1.092;2023-04-10T07:23:51;101938.03;;;13.50;100.00
9784;BME280;4931;44.874;-1.092;2023-04-10T07:26:17;101934.22;;;13.61;100.00
9784;BME280;4931;44.874;-1.092;2023-04-10T07:28:42;101925.72;;;13.83;100.00
9784;BME280;4931;44.874;-1.092;2023-04-10T07:31:09;101919.94;;;14.21;100.00
9784;BME280;4931;44.874;-1.092;2023-04-10T07:33:35;101913.59;;;14.31;100.00
9784;BME280;4931;44.874;-1.092;2023-04-10T07:36:00;101920.50;;;14.28;100.00
9784;BME280;4931;44.874;-1.092;2023-04-10T07:38:27;101932.06;;;14.35;100.00
9784;BME280;4931;44.874;-1.092;2023-04-10T07:40:57;101929.06;;;14.32;100.00
9784;BME280;4931;44.874;-1.092;2023-04-10T07:43:23;101916.06;;;14.27;100.00
9784;BME280;4931;44.874;-1.092;2023-04-10T07:45:48;101915.53;;;14.25;100.00
9784;BME280;4931;44.874;-1.092;2023-04-10T07:48:14;101919.13;;;14.31;100.00
9784;BME280;4931;44.874;-1.092;2023-04-10T07:50:40;101934.84;;;14.30;100.00
9784;BME280;4931;44.874;-1.092;2023-04-10T07:53:05;101935.66;;;14.10;100.00
9784;BME280;4931;44.874;-1.092;2023-04-10T07:55:43;101946.72;;;14.20;100.00
9784;BME280;4931;44.874;-1.092;2023-04-10T07:58:09;101954.41;;;14.18;100.00
9784;BME280;4931;44.874;-1.092;2023-04-10T08:00:35;101955.81;;;14.26;100.00
9784;BME280;4931;44.874;-1.092;2023-04-10T08:03:00;101961.31;;;14.31;100.00
9784;BME280;4931;44.874;-1.092;2023-04-10T08:05:26;101955.81;;;14.26;100.00
9784;BME280;4931;44.874;-1.092;2023-04-10T08:07:52;101950.00;;;14.43;100.00
9784;BME280;4931;44.874;-1.092;2023-04-10T08:10:17;101949.75;;;14.29;100.00
9784;BME280;4931;44.874;-1.092;2023-04-10T08:12:43;101954.72;;;14.42;100.00
9784;BME280;4931;44.874;-1.092;2023-04-10T08:15:09;101961.88;;;14.69;100.00
9784;BME280;4931;44.874;-1.092;2023-04-10T08:17:34;101970.94;;;14.90;100.00
9784;BME280;4931;44.874;-1.092;2023-04-10T08:20:00;101971.16;;;15.25;100.00
9784;BME280;4931;44.874;-1.092;2023-04-10T08:22:25;101980.00;;;15.17;100.00
9784;BME280;4931;44.874;-1.092;2023-04-10T08:24:51;101976.69;;;15.20;100.00
9784;BME280;4931;44.874;-1.092;2023-04-10T08:27:16;101981.13;;;15.21;100.00
9784;BME280;4931;44.874;-1.092;2023-04-10T08:29:42;101983.06;;;15.15;100.00
9784;BME280;4931;44.874;-1.092;2023-04-10T08:32:08;101990.00;;;15.02;100.00
9784;BME280;4931;44.874;-1.092;2023-04-10T08:34:33;101991.66;;;15.03;100.00
9784;BME280;4931;44.874;-1.092;2023-04-10T08:36:59;101977.84;;;15.03;100.00
9784;BME280;4931;44.874;-1.092;2023-04-10T08:39:24;101984.47;;;15.02;100.00
9784;BME280;4931;44.874;-1.092;2023-04-10T08:41:50;101975.06;;;15.03;100.00
9784;BME280;4931;44.874;-1.092;2023-04-10T08:44:16;101985.28;;;15.13;100.00
9784;BME280;4931;44.874;-1.092;2023-04-10T08:46:43;101994.63;;;15.27;100.00
9784;BME280;4931;44.874;-1.092;2023-04-10T08:52:06;102010.38;;;15.22;100.00
9784;BME280;4931;44.874;-1.092;2023-04-10T08:54:33;102014.28;;;15.21;100.00
9784;BME280;4931;44.874;-1.092;2023-04-10T08:57:00;102012.28;;;15.37;100.00
9784;BME280;4931;44.874;-1.092;2023-04-10T08:59:29;102014.78;;;15.38;100.00
9784;BME280;4931;44.874;-1.092;2023-04-10T09:01:56;102012.59;;;15.35;100.00
9784;BME280;4931;44.874;-1.092;2023-04-10T09:04:25;102030.81;;;15.36;100.00
9784;BME280;4931;44.874;-1.092;2023-04-10T09:06:51;102026.38;;;15.40;100.00
9784;BME280;4931;44.874;-1.092;2023-04-10T09:09:17;102029.94;;;15.51;100.00
9784;BME280;4931;44.874;-1.092;2023-04-10T09:16:46;102028.28;;;16.10;100.00
9784;BME280;4931;44.874;-1.092;2023-04-10T09:19:11;102032.31;;;16.29;100.00
9784;BME280;4931;44.874;-1.092;2023-04-10T09:21:37;102028.63;;;16.38;100.00
9784;BME280;4931;44.874;-1.092;2023-04-10T09:24:02;102038.19;;;16.22;100.00
9784;BME280;4931;44.874;-1.092;2023-04-10T09:26:30;102040.38;;;16.25;100.00
9784;BME280;4931;44.874;-1.092;2023-04-10T09:31:38;102039.38;;;16.05;100.00
9784;BME280;4931;44.874;-1.092;2023-04-10T09:34:14;102033.06;;;16.39;100.00
9784;BME280;4931;44.874;-1.092;2023-04-10T09:36:54;102028.34;;;16.74;100.00
9784;BME280;4931;44.874;-1.092;2023-04-10T09:39:21;102039.13;;;16.76;100.00
9784;BME280;4931;44.874;-1.092;2023-04-10T09:41:51;102041.22;;;16.60;100.00
9784;BME280;4931;44.874;-1.092;2023-04-10T09:44:30;102050.19;;;16.81;100.00
9784;BME280;4931;44.874;-1.092;2023-04-10T09:47:17;102054.28;;;17.18;100.00
9784;BME280;4931;44.874;-1.092;2023-04-10T09:49:57;102058.41;;;17.21;100.00
9784;BME280;4931;44.874;-1.092;2023-04-10T09:52:28;102058.41;;;17.21;100.00
9784;BME280;4931;44.874;-1.092;2023-04-10T09:54:56;102062.50;;;16.99;100.00
9784;BME280;4931;44.874;-1.092;2023-04-10T09:57:24;102059.97;;;17.03;100.00
9784;BME280;4931;44.874;-1.092;2023-04-10T09:59:54;102061.22;;;17.16;100.00
9784;BME280;4931;44.874;-1.092;2023-04-10T10:02:22;102063.31;;;17.29;100.00
9784;BME280;4931;44.874;-1.092;2023-04-10T10:04:48;102070.56;;;17.25;100.00
9784;BME280;4931;44.874;-1.092;2023-04-10T10:07:15;102074.59;;;17.38;100.00
9784;BME280;4931;44.874;-1.092;2023-04-10T10:09:42;102072.31;;;17.40;100.00
9784;BME280;4931;44.874;-1.092;2023-04-10T10:12:10;102071.56;;;17.34;100.00
9784;BME280;4931;44.874;-1.092;2023-04-10T10:14:44;102074.84;;;17.41;100.00
9784;BME280;4931;44.874;-1.092;2023-04-10T10:17:14;102079.38;;;17.32;100.00
9784;BME280;4931;44.874;-1.092;2023-04-10T10:19:53;102078.22;;;17.33;100.00
9784;BME280;4931;44.874;-1.092;2023-04-10T10:22:21;102077.28;;;17.19;100.00
9784;BME280;4931;44.874;-1.092;2023-04-10T10:24:49;102074.44;;;17.24;100.00
9784;BME280;4931;44.874;-1.092;2023-04-10T10:27:21;102083.41;;;17.16;100.00
9784;BME280;4931;44.874;-1.092;2023-04-10T10:29:48;102073.25;;;17.06;100.00
9784;BME280;4931;44.874;-1.092;2023-04-10T10:32:16;102070.81;;;17.29;100.00
9784;BME280;4931;44.874;-1.092;2023-04-10T10:34:43;102066.91;;;17.78;100.00
9784;BME280;4931;44.874;-1.092;2023-04-10T10:37:09;102065.84;;;17.98;100.00
9784;BME280;4931;44.874;-1.092;2023-04-10T10:45:16;102061.69;;;18.15;100.00
9784;BME280;4931;44.874;-1.092;2023-04-10T10:47:47;102052.09;;;18.26;100.00
9784;BME280;4931;44.874;-1.092;2023-04-10T10:50:14;102062.22;;;18.55;100.00
9784;BME280;4931;44.874;-1.092;2023-04-10T10:55:32;102050.88;;;18.51;100.00
9784;BME280;4931;44.874;-1.092;2023-04-10T11:11:05;102052.09;;;19.25;100.00
9784;BME280;4931;44.874;-1.092;2023-04-10T11:16:02;102053.75;;;19.26;100.00
9784;BME280;4931;44.874;-1.092;2023-04-10T11:21:14;102047.44;;;18.93;100.00
9784;BME280;4931;44.874;-1.092;2023-04-10T11:29:02;102044.06;;;19.10;100.00
9784;BME280;4931;44.874;-1.092;2023-04-10T11:31:27;102050.13;;;19.12;100.00
9784;BME280;4931;44.874;-1.092;2023-04-10T11:36:25;102048.16;;;18.98;100.00
9784;BME280;4931;44.874;-1.092;2023-04-10T11:39:05;102043.22;;;18.95;100.00
9784;BME280;4931;44.874;-1.092;2023-04-10T11:41:34;102045.19;;;19.08;100.00
9784;BME280;4931;44.874;-1.092;2023-04-10T11:44:03;102044.69;;;19.34;100.00
9784;BME280;4931;44.874;-1.092;2023-04-10T11:46:29;102040.25;;;19.61;100.00
9784;BME280;4931;44.874;-1.092;2023-04-10T11:48:59;102038.09;;;19.30;100.00
9784;BME280;4931;44.874;-1.092;2023-04-10T11:51:25;102047.84;;;19.00;100.00
9784;BME280;4931;44.874;-1.092;2023-04-10T11:54:10;102035.81;;;19.04;100.00
9784;BME280;4931;44.874;-1.092;2023-04-10T11:56:37;102035.13;;;18.80;100.00
9784;BME280;4931;44.874;-1.092;2023-04-10T11:59:04;102033.47;;;18.79;100.00
9784;BME280;4931;44.874;-1.092;2023-04-10T12:01:44;102024.19;;;18.69;100.00
9784;BME280;4931;44.874;-1.092;2023-04-10T12:04:19;102041.75;;;18.65;100.00
9784;BME280;4931;44.874;-1.092;2023-04-10T12:06:55;102040.03;;;18.69;100.00
9784;BME280;4931;44.874;-1.092;2023-04-10T12:09:21;102038.41;;;18.49;100.00
9784;BME280;4931;44.874;-1.092;2023-04-10T12:11:54;102046.56;;;18.59;100.00
9784;BME280;4931;44.874;-1.092;2023-04-10T12:14:22;102042.41;;;18.42;100.00
9784;BME280;4931;44.874;-1.092;2023-04-10T12:16:49;102045.28;;;18.37;100.00
9784;BME280;4931;44.874;-1.092;2023-04-10T12:19:16;102043.31;;;18.38;100.00
9784;BME280;4931;44.874;-1.092;2023-04-10T12:21:43;102043.16;;;18.29;100.00
9784;BME280;4931;44.874;-1.092;2023-04-10T12:24:09;102048.22;;;18.60;100.00
9784;BME280;4931;44.874;-1.092;2023-04-10T12:26:35;102043.66;;;18.50;100.00
9784;BME280;4931;44.874;-1.092;2023-04-10T12:29:02;102050.44;;;18.25;100.00
9784;BME280;4931;44.874;-1.092;2023-04-10T12:31:35;102052.06;;;17.88;100.00
9784;BME280;4931;44.874;-1.092;2023-04-10T12:34:02;102050.09;;;17.88;100.00
9784;BME280;4931;44.874;-1.092;2023-04-10T12:36:30;102061.38;;;17.54;100.00
9784;BME280;4931;44.874;-1.092;2023-04-10T12:39:02;102049.53;;;17.67;100.00
9784;BME280;4931;44.874;-1.092;2023-04-10T12:41:30;102054.34;;;17.81;100.00
9784;BME280;4931;44.874;-1.092;2023-04-10T12:44:08;102047.81;;;17.71;100.00
9784;BME280;4931;44.874;-1.092;2023-04-10T12:46:33;102054.28;;;17.67;100.00
9784;BME280;4931;44.874;-1.092;2023-04-10T12:49:15;102051.69;;;17.75;100.00
9784;BME280;4931;44.874;-1.092;2023-04-10T12:51:50;102058.28;;;17.80;100.00
9784;BME280;4931;44.874;-1.092;2023-04-10T12:54:33;102058.09;;;17.95;100.00
9784;BME280;4931;44.874;-1.092;2023-04-10T12:57:00;102050.47;;;17.82;100.00
9784;BME280;4931;44.874;-1.092;2023-04-10T12:59:28;102057.56;;;17.93;100.00
9784;BME280;4931;44.874;-1.092;2023-04-10T13:01:54;102055.78;;;18.02;100.00
9784;BME280;4931;44.874;-1.092;2023-04-10T13:04:19;102065.56;;;18.19;100.00
9784;BME280;4931;44.874;-1.092;2023-04-10T13:06:47;102067.09;;;18.25;100.00
9784;BME280;4931;44.874;-1.092;2023-04-10T13:09:14;102065.47;;;18.05;100.00
9784;BME280;4931;44.874;-1.092;2023-04-10T13:11:40;102064.09;;;18.02;100.00
9784;BME280;4931;44.874;-1.092;2023-04-10T13:14:07;102068.78;;;17.83;100.00
9784;BME280;4931;44.874;-1.092;2023-04-10T13:16:33;102071.63;;;17.78;100.00
9784;BME280;4931;44.874;-1.092;2023-04-10T13:18:59;102075.81;;;17.99;100.00
9784;BME280;4931;44.874;-1.092;2023-04-10T13:21:25;102072.97;;;18.04;100.00
9784;BME280;4931;44.874;-1.092;2023-04-10T13:23:53;102078.66;;;17.94;100.00
9784;BME280;4931;44.874;-1.092;2023-04-10T13:26:18;102083.41;;;17.88;100.00
9784;BME280;4931;44.874;-1.092;2023-04-10T13:28:44;102083.56;;;17.78;100.00
9784;BME280;4931;44.874;-1.092;2023-04-10T13:31:09;102080.13;;;17.62;100.00
9784;BME280;4931;44.874;-1.092;2023-04-10T13:33:35;102092.56;;;17.65;100.00
9784;BME280;4931;44.874;-1.092;2023-04-10T13:36:00;102096.06;;;17.51;100.00
9784;BME280;4931;44.874;-1.092;2023-04-10T13:38:26;102103.03;;;17.49;100.00
9784;BME280;4931;44.874;-1.092;2023-04-10T13:40:52;102098.19;;;17.35;100.00
9784;BME280;4931;44.874;-1.092;2023-04-10T13:43:17;102108.31;;;17.21;100.00
9784;BME280;4931;44.874;-1.092;2023-04-10T13:45:43;102104.53;;;17.12;100.00
9784;BME280;4931;44.874;-1.092;2023-04-10T13:48:08;102100.19;;;17.00;100.00